<?xml version="1.0" encoding="UTF-8" standalone="no" ?>
<gpx xmlns="http://www.topografix.com/GPX/1/1" xmlns:xsi="http://www.w3.org/2001/XMLSchema-instance" xsi:schemaLocation="http://www.topografix.com/GPX/1/1 http://www.topografix.com/GPX/1/1/gpx.xsd" version="1.1" creator="VisuGPX - https://www.visugpx.com">
  <metadata>
    <name>Lachau-Montagne de Nanturière</name>
    <desc><![CDATA[Réalisée lors d'un Weekend au gîte des Damias avec le CAFGI.]]></desc>
  </metadata>
  <trk>
    <name><![CDATA[Lachau-Montagne de Nanturière]]></name>
    <trkseg>
      <trkpt lat="44.22981" lon="5.63764">
        <ele>724</ele>
        <time>2006-05-07T08:43:39.000Z</time>
      </trkpt>
      <trkpt lat="44.2296" lon="5.63724">
        <ele>723</ele>
        <time>2006-05-07T08:45:39.000Z</time>
      </trkpt>
      <trkpt lat="44.2285" lon="5.63605">
        <ele>723</ele>
        <time>2006-05-07T08:47:40.000Z</time>
      </trkpt>
      <trkpt lat="44.22734" lon="5.63476">
        <ele>722</ele>
        <time>2006-05-07T08:49:41.000Z</time>
      </trkpt>
      <trkpt lat="44.22626" lon="5.63337">
        <ele>726</ele>
        <time>2006-05-07T08:51:41.000Z</time>
      </trkpt>
      <trkpt lat="44.22509" lon="5.63352">
        <ele>741</ele>
        <time>2006-05-07T08:53:41.000Z</time>
      </trkpt>
      <trkpt lat="44.22359" lon="5.63374">
        <ele>746</ele>
        <time>2006-05-07T08:55:42.000Z</time>
      </trkpt>
      <trkpt lat="44.22208" lon="5.63414">
        <ele>752</ele>
        <time>2006-05-07T08:57:42.000Z</time>
      </trkpt>
      <trkpt lat="44.22072" lon="5.63399">
        <ele>746</ele>
        <time>2006-05-07T08:59:42.000Z</time>
      </trkpt>
      <trkpt lat="44.22009" lon="5.63202">
        <ele>746</ele>
        <time>2006-05-07T09:01:42.000Z</time>
      </trkpt>
      <trkpt lat="44.22029" lon="5.63025">
        <ele>752</ele>
        <time>2006-05-07T09:03:43.000Z</time>
      </trkpt>
      <trkpt lat="44.22058" lon="5.62874">
        <ele>760</ele>
        <time>2006-05-07T09:05:44.000Z</time>
      </trkpt>
      <trkpt lat="44.21975" lon="5.62787">
        <ele>777</ele>
        <time>2006-05-07T09:07:45.000Z</time>
      </trkpt>
      <trkpt lat="44.21918" lon="5.62683">
        <ele>795</ele>
        <time>2006-05-07T09:09:45.000Z</time>
      </trkpt>
      <trkpt lat="44.2187" lon="5.62592">
        <ele>819</ele>
        <time>2006-05-07T09:11:44.000Z</time>
      </trkpt>
      <trkpt lat="44.21844" lon="5.62478">
        <ele>834</ele>
        <time>2006-05-07T09:13:45.000Z</time>
      </trkpt>
      <trkpt lat="44.21842" lon="5.6242">
        <ele>833</ele>
        <time>2006-05-07T09:15:46.000Z</time>
      </trkpt>
      <trkpt lat="44.21839" lon="5.62418">
        <ele>834</ele>
        <time>2006-05-07T09:17:46.000Z</time>
      </trkpt>
      <trkpt lat="44.21794" lon="5.62447">
        <ele>856</ele>
        <time>2006-05-07T09:19:47.000Z</time>
      </trkpt>
      <trkpt lat="44.21735" lon="5.62484">
        <ele>877</ele>
        <time>2006-05-07T09:21:48.000Z</time>
      </trkpt>
      <trkpt lat="44.21695" lon="5.62433">
        <ele>886</ele>
        <time>2006-05-07T09:23:48.000Z</time>
      </trkpt>
      <trkpt lat="44.21593" lon="5.62503">
        <ele>897</ele>
        <time>2006-05-07T09:25:48.000Z</time>
      </trkpt>
      <trkpt lat="44.21527" lon="5.62401">
        <ele>911</ele>
        <time>2006-05-07T09:27:49.000Z</time>
      </trkpt>
      <trkpt lat="44.21492" lon="5.62305">
        <ele>924</ele>
        <time>2006-05-07T09:29:49.000Z</time>
      </trkpt>
      <trkpt lat="44.21468" lon="5.62191">
        <ele>936</ele>
        <time>2006-05-07T09:31:49.000Z</time>
      </trkpt>
      <trkpt lat="44.21424" lon="5.62086">
        <ele>949</ele>
        <time>2006-05-07T09:33:49.000Z</time>
      </trkpt>
      <trkpt lat="44.21383" lon="5.62004">
        <ele>962</ele>
        <time>2006-05-07T09:35:51.000Z</time>
      </trkpt>
      <trkpt lat="44.21324" lon="5.61886">
        <ele>976</ele>
        <time>2006-05-07T09:37:51.000Z</time>
      </trkpt>
      <trkpt lat="44.21306" lon="5.61708">
        <ele>971</ele>
        <time>2006-05-07T09:39:52.000Z</time>
      </trkpt>
      <trkpt lat="44.21292" lon="5.61691">
        <ele>972</ele>
        <time>2006-05-07T09:41:53.000Z</time>
      </trkpt>
      <trkpt lat="44.21287" lon="5.61688">
        <ele>973</ele>
        <time>2006-05-07T09:43:54.000Z</time>
      </trkpt>
      <trkpt lat="44.21214" lon="5.61583">
        <ele>970</ele>
        <time>2006-05-07T09:45:55.000Z</time>
      </trkpt>
      <trkpt lat="44.21136" lon="5.61492">
        <ele>985</ele>
        <time>2006-05-07T09:47:55.000Z</time>
      </trkpt>
      <trkpt lat="44.21068" lon="5.61439">
        <ele>1004</ele>
        <time>2006-05-07T09:49:55.000Z</time>
      </trkpt>
      <trkpt lat="44.20981" lon="5.61432">
        <ele>1019</ele>
        <time>2006-05-07T09:51:55.000Z</time>
      </trkpt>
      <trkpt lat="44.20911" lon="5.61485">
        <ele>1039</ele>
        <time>2006-05-07T09:53:55.000Z</time>
      </trkpt>
      <trkpt lat="44.20841" lon="5.61556">
        <ele>1065</ele>
        <time>2006-05-07T09:55:56.000Z</time>
      </trkpt>
      <trkpt lat="44.20753" lon="5.6156">
        <ele>1069</ele>
        <time>2006-05-07T09:57:57.000Z</time>
      </trkpt>
      <trkpt lat="44.20666" lon="5.61566">
        <ele>1087</ele>
        <time>2006-05-07T09:59:58.000Z</time>
      </trkpt>
      <trkpt lat="44.20581" lon="5.6154">
        <ele>1100</ele>
        <time>2006-05-07T10:01:58.000Z</time>
      </trkpt>
      <trkpt lat="44.20504" lon="5.61615">
        <ele>1109</ele>
        <time>2006-05-07T10:03:59.000Z</time>
      </trkpt>
      <trkpt lat="44.20396" lon="5.61686">
        <ele>1121</ele>
        <time>2006-05-07T10:05:59.000Z</time>
      </trkpt>
      <trkpt lat="44.20352" lon="5.61653">
        <ele>1132</ele>
        <time>2006-05-07T10:08:00.000Z</time>
      </trkpt>
      <trkpt lat="44.20348" lon="5.61666">
        <ele>1128</ele>
        <time>2006-05-07T10:10:01.000Z</time>
      </trkpt>
      <trkpt lat="44.20352" lon="5.61655">
        <ele>1132</ele>
        <time>2006-05-07T10:12:02.000Z</time>
      </trkpt>
      <trkpt lat="44.20345" lon="5.6166">
        <ele>1130</ele>
        <time>2006-05-07T10:14:02.000Z</time>
      </trkpt>
      <trkpt lat="44.20346" lon="5.61663">
        <ele>1129</ele>
        <time>2006-05-07T10:16:03.000Z</time>
      </trkpt>
      <trkpt lat="44.20152" lon="5.61812">
        <ele>1151</ele>
        <time>2006-05-07T10:20:58.000Z</time>
      </trkpt>
      <trkpt lat="44.20034" lon="5.61909">
        <ele>1157</ele>
        <time>2006-05-07T10:22:59.000Z</time>
      </trkpt>
      <trkpt lat="44.1991" lon="5.61996">
        <ele>1169</ele>
        <time>2006-05-07T10:25:00.000Z</time>
      </trkpt>
      <trkpt lat="44.19791" lon="5.6206">
        <ele>1185</ele>
        <time>2006-05-07T10:27:00.000Z</time>
      </trkpt>
      <trkpt lat="44.19754" lon="5.62029">
        <ele>1186</ele>
        <time>2006-05-07T10:29:00.000Z</time>
      </trkpt>
      <trkpt lat="44.19757" lon="5.6203">
        <ele>1186</ele>
        <time>2006-05-07T10:31:01.000Z</time>
      </trkpt>
      <trkpt lat="44.19732" lon="5.62038">
        <ele>1190</ele>
        <time>2006-05-07T10:33:01.000Z</time>
      </trkpt>
      <trkpt lat="44.19615" lon="5.62056">
        <ele>1198</ele>
        <time>2006-05-07T10:35:01.000Z</time>
      </trkpt>
      <trkpt lat="44.19485" lon="5.621">
        <ele>1196</ele>
        <time>2006-05-07T10:37:02.000Z</time>
      </trkpt>
      <trkpt lat="44.19371" lon="5.62206">
        <ele>1193</ele>
        <time>2006-05-07T10:39:03.000Z</time>
      </trkpt>
      <trkpt lat="44.19289" lon="5.62224">
        <ele>1189</ele>
        <time>2006-05-07T10:41:04.000Z</time>
      </trkpt>
      <trkpt lat="44.19226" lon="5.62261">
        <ele>1188</ele>
        <time>2006-05-07T10:43:04.000Z</time>
      </trkpt>
      <trkpt lat="44.1918" lon="5.62314">
        <ele>1198</ele>
        <time>2006-05-07T10:45:05.000Z</time>
      </trkpt>
      <trkpt lat="44.19147" lon="5.62356">
        <ele>1203</ele>
        <time>2006-05-07T10:46:44.000Z</time>
      </trkpt>
      <trkpt lat="44.1915" lon="5.62346">
        <ele>1202</ele>
        <time>2006-05-07T11:21:06.000Z</time>
      </trkpt>
      <trkpt lat="44.19205" lon="5.62304">
        <ele>1192</ele>
        <time>2006-05-07T11:23:06.000Z</time>
      </trkpt>
      <trkpt lat="44.19273" lon="5.62333">
        <ele>1181</ele>
        <time>2006-05-07T11:25:07.000Z</time>
      </trkpt>
      <trkpt lat="44.19222" lon="5.62511">
        <ele>1180</ele>
        <time>2006-05-07T11:27:07.000Z</time>
      </trkpt>
      <trkpt lat="44.19192" lon="5.6269">
        <ele>1161</ele>
        <time>2006-05-07T11:29:07.000Z</time>
      </trkpt>
      <trkpt lat="44.19171" lon="5.62865">
        <ele>1145</ele>
        <time>2006-05-07T11:31:07.000Z</time>
      </trkpt>
      <trkpt lat="44.19134" lon="5.63026">
        <ele>1128</ele>
        <time>2006-05-07T11:33:07.000Z</time>
      </trkpt>
      <trkpt lat="44.19084" lon="5.63029">
        <ele>1107</ele>
        <time>2006-05-07T11:35:08.000Z</time>
      </trkpt>
      <trkpt lat="44.19019" lon="5.63174">
        <ele>1094</ele>
        <time>2006-05-07T11:37:09.000Z</time>
      </trkpt>
      <trkpt lat="44.19077" lon="5.63257">
        <ele>1107</ele>
        <time>2006-05-07T11:39:09.000Z</time>
      </trkpt>
      <trkpt lat="44.19145" lon="5.63309">
        <ele>1119</ele>
        <time>2006-05-07T11:41:08.000Z</time>
      </trkpt>
      <trkpt lat="44.19216" lon="5.63365">
        <ele>1135</ele>
        <time>2006-05-07T11:43:10.000Z</time>
      </trkpt>
      <trkpt lat="44.19284" lon="5.63382">
        <ele>1149</ele>
        <time>2006-05-07T11:45:12.000Z</time>
      </trkpt>
      <trkpt lat="44.19289" lon="5.63492">
        <ele>1155</ele>
        <time>2006-05-07T11:47:11.000Z</time>
      </trkpt>
      <trkpt lat="44.19301" lon="5.63629">
        <ele>1174</ele>
        <time>2006-05-07T11:49:12.000Z</time>
      </trkpt>
      <trkpt lat="44.19321" lon="5.63733">
        <ele>1190</ele>
        <time>2006-05-07T11:51:13.000Z</time>
      </trkpt>
      <trkpt lat="44.19354" lon="5.63774">
        <ele>1202</ele>
        <time>2006-05-07T11:53:14.000Z</time>
      </trkpt>
      <trkpt lat="44.19402" lon="5.63777">
        <ele>1220</ele>
        <time>2006-05-07T11:55:14.000Z</time>
      </trkpt>
      <trkpt lat="44.19458" lon="5.63697">
        <ele>1232</ele>
        <time>2006-05-07T11:57:13.000Z</time>
      </trkpt>
      <trkpt lat="44.19505" lon="5.63727">
        <ele>1251</ele>
        <time>2006-05-07T11:59:13.000Z</time>
      </trkpt>
      <trkpt lat="44.1955" lon="5.63646">
        <ele>1261</ele>
        <time>2006-05-07T12:01:15.000Z</time>
      </trkpt>
      <trkpt lat="44.19607" lon="5.6359">
        <ele>1274</ele>
        <time>2006-05-07T12:03:15.000Z</time>
      </trkpt>
      <trkpt lat="44.19659" lon="5.63524">
        <ele>1291</ele>
        <time>2006-05-07T12:05:16.000Z</time>
      </trkpt>
      <trkpt lat="44.19707" lon="5.63491">
        <ele>1309</ele>
        <time>2006-05-07T12:07:16.000Z</time>
      </trkpt>
      <trkpt lat="44.1976" lon="5.63462">
        <ele>1326</ele>
        <time>2006-05-07T12:09:17.000Z</time>
      </trkpt>
      <trkpt lat="44.19808" lon="5.63395">
        <ele>1340</ele>
        <time>2006-05-07T12:11:18.000Z</time>
      </trkpt>
      <trkpt lat="44.19867" lon="5.63367">
        <ele>1351</ele>
        <time>2006-05-07T12:13:18.000Z</time>
      </trkpt>
      <trkpt lat="44.19864" lon="5.63368">
        <ele>1351</ele>
        <time>2006-05-07T12:15:19.000Z</time>
      </trkpt>
      <trkpt lat="44.19866" lon="5.63367">
        <ele>1351</ele>
        <time>2006-05-07T12:17:19.000Z</time>
      </trkpt>
      <trkpt lat="44.19884" lon="5.63466">
        <ele>1355</ele>
        <time>2006-05-07T12:19:21.000Z</time>
      </trkpt>
      <trkpt lat="44.19889" lon="5.63562">
        <ele>1368</ele>
        <time>2006-05-07T12:21:21.000Z</time>
      </trkpt>
      <trkpt lat="44.1987" lon="5.63679">
        <ele>1379</ele>
        <time>2006-05-07T12:23:21.000Z</time>
      </trkpt>
      <trkpt lat="44.19877" lon="5.63808">
        <ele>1391</ele>
        <time>2006-05-07T12:25:21.000Z</time>
      </trkpt>
      <trkpt lat="44.19845" lon="5.63932">
        <ele>1406</ele>
        <time>2006-05-07T12:27:21.000Z</time>
      </trkpt>
      <trkpt lat="44.19788" lon="5.6394">
        <ele>1405</ele>
        <time>2006-05-07T12:29:22.000Z</time>
      </trkpt>
      <trkpt lat="44.19799" lon="5.64">
        <ele>1412</ele>
        <time>2006-05-07T12:31:22.000Z</time>
      </trkpt>
      <trkpt lat="44.198" lon="5.6402">
        <ele>1413</ele>
        <time>2006-05-07T12:33:23.000Z</time>
      </trkpt>
      <trkpt lat="44.19804" lon="5.64017">
        <ele>1412</ele>
        <time>2006-05-07T12:37:35.000Z</time>
      </trkpt>
      <trkpt lat="44.19804" lon="5.64018">
        <ele>1413</ele>
        <time>2006-05-07T12:37:46.000Z</time>
      </trkpt>
      <trkpt lat="44.19798" lon="5.64017">
        <ele>1413</ele>
        <time>2006-05-07T13:19:24.000Z</time>
      </trkpt>
      <trkpt lat="44.19801" lon="5.64019">
        <ele>1413</ele>
        <time>2006-05-07T13:21:25.000Z</time>
      </trkpt>
      <trkpt lat="44.19801" lon="5.64019">
        <ele>1413</ele>
        <time>2006-05-07T13:23:26.000Z</time>
      </trkpt>
      <trkpt lat="44.198" lon="5.6402">
        <ele>1413</ele>
        <time>2006-05-07T13:25:27.000Z</time>
      </trkpt>
      <trkpt lat="44.198" lon="5.6402">
        <ele>1413</ele>
        <time>2006-05-07T13:27:27.000Z</time>
      </trkpt>
      <trkpt lat="44.19801" lon="5.6402">
        <ele>1413</ele>
        <time>2006-05-07T13:29:27.000Z</time>
      </trkpt>
      <trkpt lat="44.19801" lon="5.64018">
        <ele>1413</ele>
        <time>2006-05-07T13:31:27.000Z</time>
      </trkpt>
      <trkpt lat="44.198" lon="5.64022">
        <ele>1413</ele>
        <time>2006-05-07T13:33:28.000Z</time>
      </trkpt>
      <trkpt lat="44.19838" lon="5.64017">
        <ele>1411</ele>
        <time>2006-05-07T13:35:28.000Z</time>
      </trkpt>
      <trkpt lat="44.1982" lon="5.63936">
        <ele>1407</ele>
        <time>2006-05-07T13:37:28.000Z</time>
      </trkpt>
      <trkpt lat="44.19922" lon="5.63971">
        <ele>1403</ele>
        <time>2006-05-07T13:39:29.000Z</time>
      </trkpt>
      <trkpt lat="44.1995" lon="5.63938">
        <ele>1396</ele>
        <time>2006-05-07T13:41:30.000Z</time>
      </trkpt>
      <trkpt lat="44.2004" lon="5.64004">
        <ele>1358</ele>
        <time>2006-05-07T13:43:31.000Z</time>
      </trkpt>
      <trkpt lat="44.20101" lon="5.63964">
        <ele>1343</ele>
        <time>2006-05-07T13:45:32.000Z</time>
      </trkpt>
      <trkpt lat="44.20223" lon="5.63967">
        <ele>1307</ele>
        <time>2006-05-07T13:47:32.000Z</time>
      </trkpt>
      <trkpt lat="44.20323" lon="5.64006">
        <ele>1274</ele>
        <time>2006-05-07T13:49:32.000Z</time>
      </trkpt>
      <trkpt lat="44.20407" lon="5.64069">
        <ele>1240</ele>
        <time>2006-05-07T13:51:33.000Z</time>
      </trkpt>
      <trkpt lat="44.20491" lon="5.64128">
        <ele>1212</ele>
        <time>2006-05-07T13:53:33.000Z</time>
      </trkpt>
      <trkpt lat="44.20579" lon="5.64224">
        <ele>1173</ele>
        <time>2006-05-07T13:55:34.000Z</time>
      </trkpt>
      <trkpt lat="44.20649" lon="5.6424">
        <ele>1160</ele>
        <time>2006-05-07T13:57:34.000Z</time>
      </trkpt>
      <trkpt lat="44.20733" lon="5.64207">
        <ele>1133</ele>
        <time>2006-05-07T13:59:35.000Z</time>
      </trkpt>
      <trkpt lat="44.20732" lon="5.64213">
        <ele>1132</ele>
        <time>2006-05-07T14:01:36.000Z</time>
      </trkpt>
      <trkpt lat="44.2073" lon="5.64207">
        <ele>1134</ele>
        <time>2006-05-07T14:03:36.000Z</time>
      </trkpt>
      <trkpt lat="44.20733" lon="5.6421">
        <ele>1132</ele>
        <time>2006-05-07T14:05:37.000Z</time>
      </trkpt>
      <trkpt lat="44.20742" lon="5.64278">
        <ele>1122</ele>
        <time>2006-05-07T14:07:38.000Z</time>
      </trkpt>
      <trkpt lat="44.20669" lon="5.64413">
        <ele>1105</ele>
        <time>2006-05-07T14:09:39.000Z</time>
      </trkpt>
      <trkpt lat="44.20561" lon="5.64448">
        <ele>1086</ele>
        <time>2006-05-07T14:11:40.000Z</time>
      </trkpt>
      <trkpt lat="44.20494" lon="5.64589">
        <ele>1069</ele>
        <time>2006-05-07T14:13:40.000Z</time>
      </trkpt>
      <trkpt lat="44.20483" lon="5.64766">
        <ele>1077</ele>
        <time>2006-05-07T14:15:40.000Z</time>
      </trkpt>
      <trkpt lat="44.20499" lon="5.64921">
        <ele>1080</ele>
        <time>2006-05-07T14:17:40.000Z</time>
      </trkpt>
      <trkpt lat="44.20564" lon="5.64999">
        <ele>1075</ele>
        <time>2006-05-07T14:19:41.000Z</time>
      </trkpt>
      <trkpt lat="44.20569" lon="5.65008">
        <ele>1076</ele>
        <time>2006-05-07T14:21:41.000Z</time>
      </trkpt>
      <trkpt lat="44.20594" lon="5.65043">
        <ele>1080</ele>
        <time>2006-05-07T14:23:41.000Z</time>
      </trkpt>
      <trkpt lat="44.20668" lon="5.65123">
        <ele>1108</ele>
        <time>2006-05-07T14:25:41.000Z</time>
      </trkpt>
      <trkpt lat="44.20673" lon="5.65239">
        <ele>1128</ele>
        <time>2006-05-07T14:27:41.000Z</time>
      </trkpt>
      <trkpt lat="44.20702" lon="5.65277">
        <ele>1151</ele>
        <time>2006-05-07T14:29:41.000Z</time>
      </trkpt>
      <trkpt lat="44.20727" lon="5.65276">
        <ele>1170</ele>
        <time>2006-05-07T14:31:42.000Z</time>
      </trkpt>
      <trkpt lat="44.20754" lon="5.65283">
        <ele>1187</ele>
        <time>2006-05-07T14:33:02.000Z</time>
      </trkpt>
      <trkpt lat="44.20799" lon="5.65179">
        <ele>1179</ele>
        <time>2006-05-07T14:35:02.000Z</time>
      </trkpt>
      <trkpt lat="44.20794" lon="5.65105">
        <ele>1168</ele>
        <time>2006-05-07T14:37:03.000Z</time>
      </trkpt>
      <trkpt lat="44.20816" lon="5.65091">
        <ele>1166</ele>
        <time>2006-05-07T14:39:04.000Z</time>
      </trkpt>
      <trkpt lat="44.20816" lon="5.65092">
        <ele>1166</ele>
        <time>2006-05-07T14:41:04.000Z</time>
      </trkpt>
      <trkpt lat="44.20811" lon="5.65099">
        <ele>1167</ele>
        <time>2006-05-07T14:43:05.000Z</time>
      </trkpt>
      <trkpt lat="44.20782" lon="5.65141">
        <ele>1169</ele>
        <time>2006-05-07T14:45:05.000Z</time>
      </trkpt>
      <trkpt lat="44.20747" lon="5.65051">
        <ele>1135</ele>
        <time>2006-05-07T14:47:05.000Z</time>
      </trkpt>
      <trkpt lat="44.20702" lon="5.65075">
        <ele>1116</ele>
        <time>2006-05-07T14:49:07.000Z</time>
      </trkpt>
      <trkpt lat="44.2059" lon="5.65007">
        <ele>1077</ele>
        <time>2006-05-07T14:51:08.000Z</time>
      </trkpt>
      <trkpt lat="44.20575" lon="5.6503">
        <ele>1077</ele>
        <time>2006-05-07T14:53:09.000Z</time>
      </trkpt>
      <trkpt lat="44.20566" lon="5.6501">
        <ele>1076</ele>
        <time>2006-05-07T14:55:08.000Z</time>
      </trkpt>
      <trkpt lat="44.20564" lon="5.65009">
        <ele>1076</ele>
        <time>2006-05-07T14:57:10.000Z</time>
      </trkpt>
      <trkpt lat="44.20565" lon="5.6501">
        <ele>1076</ele>
        <time>2006-05-07T14:59:10.000Z</time>
      </trkpt>
      <trkpt lat="44.20569" lon="5.65006">
        <ele>1076</ele>
        <time>2006-05-07T15:01:10.000Z</time>
      </trkpt>
      <trkpt lat="44.20587" lon="5.64968">
        <ele>1073</ele>
        <time>2006-05-07T15:03:10.000Z</time>
      </trkpt>
      <trkpt lat="44.20589" lon="5.64968">
        <ele>1074</ele>
        <time>2006-05-07T15:05:11.000Z</time>
      </trkpt>
      <trkpt lat="44.20636" lon="5.6488">
        <ele>1063</ele>
        <time>2006-05-07T15:07:11.000Z</time>
      </trkpt>
      <trkpt lat="44.20706" lon="5.64721">
        <ele>1034</ele>
        <time>2006-05-07T15:09:11.000Z</time>
      </trkpt>
      <trkpt lat="44.20779" lon="5.64568">
        <ele>1015</ele>
        <time>2006-05-07T15:11:12.000Z</time>
      </trkpt>
      <trkpt lat="44.20859" lon="5.64508">
        <ele>995</ele>
        <time>2006-05-07T15:13:11.000Z</time>
      </trkpt>
      <trkpt lat="44.20887" lon="5.64575">
        <ele>977</ele>
        <time>2006-05-07T15:15:12.000Z</time>
      </trkpt>
      <trkpt lat="44.20947" lon="5.64556">
        <ele>961</ele>
        <time>2006-05-07T15:17:13.000Z</time>
      </trkpt>
      <trkpt lat="44.21066" lon="5.6456">
        <ele>947</ele>
        <time>2006-05-07T15:19:13.000Z</time>
      </trkpt>
      <trkpt lat="44.21192" lon="5.64548">
        <ele>923</ele>
        <time>2006-05-07T15:21:13.000Z</time>
      </trkpt>
      <trkpt lat="44.2131" lon="5.6447">
        <ele>908</ele>
        <time>2006-05-07T15:23:14.000Z</time>
      </trkpt>
      <trkpt lat="44.21443" lon="5.64444">
        <ele>887</ele>
        <time>2006-05-07T15:25:15.000Z</time>
      </trkpt>
      <trkpt lat="44.21482" lon="5.64386">
        <ele>876</ele>
        <time>2006-05-07T15:27:15.000Z</time>
      </trkpt>
      <trkpt lat="44.21535" lon="5.6427">
        <ele>847</ele>
        <time>2006-05-07T15:29:16.000Z</time>
      </trkpt>
      <trkpt lat="44.21596" lon="5.64363">
        <ele>837</ele>
        <time>2006-05-07T15:31:17.000Z</time>
      </trkpt>
      <trkpt lat="44.21708" lon="5.64335">
        <ele>816</ele>
        <time>2006-05-07T15:33:17.000Z</time>
      </trkpt>
      <trkpt lat="44.21861" lon="5.64298">
        <ele>791</ele>
        <time>2006-05-07T15:35:18.000Z</time>
      </trkpt>
      <trkpt lat="44.22002" lon="5.64299">
        <ele>773</ele>
        <time>2006-05-07T15:37:19.000Z</time>
      </trkpt>
      <trkpt lat="44.22147" lon="5.64301">
        <ele>753</ele>
        <time>2006-05-07T15:39:19.000Z</time>
      </trkpt>
      <trkpt lat="44.22288" lon="5.64324">
        <ele>743</ele>
        <time>2006-05-07T15:41:20.000Z</time>
      </trkpt>
      <trkpt lat="44.22431" lon="5.64263">
        <ele>741</ele>
        <time>2006-05-07T15:43:21.000Z</time>
      </trkpt>
    </trkseg>
  </trk>
</gpx>